createdAt,value
2022-08-17T00:00:34.379Z,6.40
2022-08-17T00:03:03.703Z,6.57
2022-08-17T00:05:33.917Z,8.00
2022-08-17T00:08:01.891Z,11.33
2022-08-17T00:10:29.932Z,8.90
2022-08-17T00:13:01.113Z,8.43
2022-08-17T00:15:30.641Z,7.67
2022-08-17T00:17:58.655Z,7.30
2022-08-17T00:20:30.473Z,8.40
2022-08-17T00:23:05.722Z,6.70
2022-08-17T00:25:34.032Z,6.67
2022-08-17T00:28:02.101Z,6.63
2022-08-17T00:30:31.606Z,7.80
2022-08-17T00:33:23.663Z,6.93
2022-08-17T00:35:52.297Z,7.30
2022-08-17T00:38:20.637Z,7.70
2022-08-17T00:40:51.818Z,7.57
2022-08-17T00:43:27.872Z,6.90
2022-08-17T00:45:57.440Z,7.27
2022-08-17T00:48:30.282Z,7.40
2022-08-17T00:51:08.112Z,7.60
2022-08-17T00:53:45.060Z,7.80
2022-08-17T00:56:17.980Z,7.33
2022-08-17T00:58:46.091Z,6.77
2022-08-17T01:01:21.618Z,7.80
2022-08-17T01:03:51.507Z,6.50
2022-08-17T01:06:19.878Z,7.57
2022-08-17T01:08:48.332Z,7.40
2022-08-17T01:11:25.892Z,6.57
2022-08-17T01:13:54.199Z,7.23
2022-08-17T01:16:27.031Z,6.87
2022-08-17T01:18:58.331Z,7.40
2022-08-17T01:21:33.666Z,6.40
2022-08-17T01:24:03.436Z,6.70
2022-08-17T01:26:33.250Z,6.90
2022-08-17T01:29:02.443Z,7.40
2022-08-17T01:31:34.759Z,6.40
2022-08-17T01:34:06.659Z,6.97
2022-08-17T01:36:35.059Z,7.87
2022-08-17T01:39:05.005Z,6.30
2022-08-17T01:41:33.273Z,6.83
2022-08-17T01:44:04.306Z,6.87
2022-08-17T01:46:35.694Z,6.90
2022-08-17T01:49:07.560Z,7.17
2022-08-17T01:51:35.911Z,7.00
2022-08-17T01:54:08.860Z,7.53
2022-08-17T01:56:40.889Z,7.40
2022-08-17T01:59:08.882Z,7.57
2022-08-17T02:01:37.926Z,7.80
2022-08-17T02:04:08.351Z,7.30
2022-08-17T02:06:53.618Z,7.30
2022-08-17T02:09:25.873Z,7.17
2022-08-17T02:11:54.871Z,7.17
2022-08-17T02:14:25.701Z,6.70
2022-08-17T02:16:54.763Z,6.70
2022-08-17T02:19:23.226Z,6.80
2022-08-17T02:21:53.369Z,7.13
2022-08-17T02:24:58.741Z,6.60
2022-08-17T02:27:13.406Z,5.87
2022-08-17T02:29:41.438Z,5.90
2022-08-17T02:32:25.381Z,6.63
2022-08-17T02:34:57.223Z,6.03
2022-08-17T02:37:25.588Z,6.10
2022-08-17T02:39:56.954Z,6.77
2022-08-17T02:42:29.992Z,7.33
2022-08-17T02:44:57.972Z,6.87
2022-08-17T02:47:26.761Z,6.30
2022-08-17T02:49:55.730Z,6.70
2022-08-17T02:52:43.139Z,6.80
2022-08-17T02:55:17.221Z,6.90
2022-08-17T02:57:45.752Z,6.90
2022-08-17T03:00:17.646Z,7.37
2022-08-17T03:02:46.736Z,7.17
2022-08-17T03:05:18.275Z,6.47
2022-08-17T03:07:46.895Z,7.20
2022-08-17T03:10:17.475Z,6.50
2022-08-17T03:12:46.209Z,7.00
2022-08-17T03:15:17.904Z,6.77
2022-08-17T03:17:46.246Z,7.10
2022-08-17T03:20:16.082Z,6.10
2022-08-17T03:22:53.393Z,6.63
2022-08-17T03:25:25.868Z,7.10
2022-08-17T03:27:55.175Z,7.23
2022-08-17T03:30:24.185Z,7.40
2022-08-17T03:32:54.639Z,7.50
2022-08-17T03:35:24.965Z,7.70
2022-08-17T03:38:00.932Z,7.90
2022-08-17T03:40:55.677Z,7.17
2022-08-17T03:43:22.236Z,7.50
2022-08-17T03:46:10.795Z,7.20
2022-08-17T03:49:12.976Z,7.57
2022-08-17T03:51:58.464Z,7.23
2022-08-17T03:54:43.824Z,6.87
2022-08-17T03:57:13.624Z,7.60
2022-08-17T03:59:41.877Z,7.27
2022-08-17T04:02:15.419Z,6.90
2022-08-17T04:04:43.535Z,7.30
2022-08-17T04:07:11.576Z,7.17
2022-08-17T04:09:39.605Z,7.17
2022-08-17T04:12:07.822Z,6.73
2022-08-17T04:14:51.875Z,7.43
2022-08-17T04:17:23.565Z,6.90
2022-08-17T04:19:51.605Z,7.27
2022-08-17T04:22:30.441Z,6.70
2022-08-17T04:25:08.478Z,8.00
2022-08-17T04:27:36.975Z,7.33
2022-08-17T04:30:08.128Z,7.10
2022-08-17T04:33:03.837Z,6.83
2022-08-17T04:35:36.869Z,7.90
2022-08-17T04:38:04.942Z,8.07
2022-08-17T04:40:50.671Z,7.87
2022-08-17T04:43:22.299Z,8.87
2022-08-17T04:45:55.252Z,7.60
2022-08-17T04:48:35.267Z,7.63
2022-08-17T04:51:07.470Z,7.63
2022-08-17T04:53:35.633Z,6.97
2022-08-17T04:56:03.918Z,7.80
2022-08-17T04:58:32.102Z,7.50
2022-08-17T05:01:01.691Z,7.70
2022-08-17T05:03:30.308Z,7.53
2022-08-17T05:05:58.641Z,6.97
2022-08-17T05:08:26.682Z,7.27
2022-08-17T05:10:54.910Z,7.67
2022-08-17T05:13:24.797Z,7.47
2022-08-17T05:15:56.656Z,7.33
2022-08-17T05:18:26.689Z,7.40
2022-08-17T05:20:55.463Z,7.80
2022-08-17T05:23:25.313Z,7.40
2022-08-17T05:25:56.304Z,8.80
2022-08-17T05:28:27.607Z,9.10
2022-08-17T05:31:00.817Z,9.30
2022-08-17T05:33:32.356Z,20.20
2022-08-17T05:36:01.376Z,11.00
2022-08-17T05:38:30.824Z,8.70
2022-08-17T05:41:00.139Z,7.73
2022-08-17T05:43:30.115Z,9.00
2022-08-17T05:46:03.826Z,9.83
2022-08-17T05:48:40.100Z,10.03
2022-08-17T05:51:24.764Z,9.60
2022-08-17T05:54:01.176Z,9.53
2022-08-17T05:56:47.374Z,9.97
2022-08-17T05:59:24.936Z,9.33
2022-08-17T06:01:59.074Z,9.10
2022-08-17T06:04:37.662Z,9.43
2022-08-17T06:07:22.443Z,8.90
2022-08-17T06:10:00.455Z,8.60
2022-08-17T06:12:40.978Z,8.30
2022-08-17T06:15:24.565Z,8.67
2022-08-17T06:17:56.088Z,8.40
2022-08-17T06:20:28.187Z,8.43
2022-08-17T06:23:03.875Z,7.70
2022-08-17T06:25:37.907Z,8.53
2022-08-17T06:28:09.589Z,8.37
2022-08-17T06:30:58.630Z,7.83
2022-08-17T06:33:34.131Z,9.27
2022-08-17T06:36:10.004Z,8.77
2022-08-17T06:38:47.512Z,9.10
2022-08-17T06:41:25.207Z,8.70
2022-08-17T06:44:43.133Z,8.73
2022-08-17T06:47:08.946Z,8.83
2022-08-17T06:49:44.285Z,7.87
2022-08-17T06:52:43.432Z,10.00
2022-08-17T06:55:18.672Z,8.23
2022-08-17T06:57:52.499Z,8.50
2022-08-17T07:00:23.831Z,7.50
2022-08-17T07:02:57.466Z,7.40
2022-08-17T07:05:29.113Z,8.00
2022-08-17T07:08:03.757Z,8.07
2022-08-17T07:10:38.728Z,7.27
2022-08-17T07:13:25.607Z,8.37
2022-08-17T07:16:00.425Z,8.60
2022-08-17T07:18:33.016Z,8.10
2022-08-17T07:21:11.965Z,7.03
2022-08-17T07:23:57.440Z,6.77
2022-08-17T07:26:25.419Z,8.00
2022-08-17T07:28:56.091Z,6.07
2022-08-17T07:31:25.797Z,6.70
2022-08-17T07:34:03.894Z,6.17
2022-08-17T07:36:33.890Z,6.70
2022-08-17T07:39:05.806Z,6.30
2022-08-17T07:41:58.092Z,6.67
2022-08-17T07:44:28.048Z,6.33
2022-08-17T07:47:13.925Z,7.30
2022-08-17T07:49:46.450Z,6.70
2022-08-17T07:52:51.881Z,6.50
2022-08-17T07:55:32.729Z,6.80
2022-08-17T07:58:01.810Z,6.70
2022-08-17T08:00:32.004Z,7.17
2022-08-17T08:03:13.361Z,6.77
2022-08-17T08:05:52.228Z,6.60
2022-08-17T08:08:30.832Z,6.87
2022-08-17T08:11:04.119Z,7.20
2022-08-17T08:13:33.171Z,6.37
2022-08-17T08:16:24.843Z,6.53
2022-08-17T08:18:57.173Z,7.37
2022-08-17T08:21:36.297Z,6.47
2022-08-17T08:24:20.621Z,7.00
2022-08-17T08:26:57.341Z,6.70
2022-08-17T08:29:32.605Z,7.30
2022-08-17T08:32:08.571Z,7.37
2022-08-17T08:35:01.215Z,6.87
2022-08-17T08:37:42.890Z,6.43
2022-08-17T08:40:29.847Z,7.03
2022-08-17T08:43:11.574Z,6.67
2022-08-17T08:45:46.849Z,6.77
2022-08-17T08:48:55.840Z,7.37
2022-08-17T08:51:18.663Z,6.83
2022-08-17T08:53:53.686Z,6.20
2022-08-17T08:56:29.098Z,6.70
2022-08-17T08:59:08.706Z,6.17
2022-08-17T09:01:46.323Z,6.17
2022-08-17T09:04:29.710Z,5.90
2022-08-17T09:07:08.582Z,6.60
2022-08-17T09:09:46.160Z,6.83
2022-08-17T09:12:22.696Z,6.50
2022-08-17T09:14:59.498Z,6.70
2022-08-17T09:17:37.376Z,7.03
2022-08-17T09:20:14.422Z,6.83
2022-08-17T09:23:03.335Z,5.80
2022-08-17T09:25:35.978Z,7.37
2022-08-17T09:28:08.015Z,6.87
2022-08-17T09:30:45.388Z,7.10
2022-08-17T09:33:17.653Z,7.70
2022-08-17T09:35:50.365Z,7.67
2022-08-17T09:38:27.070Z,7.70
2022-08-17T09:41:04.672Z,7.27
2022-08-17T09:43:39.882Z,6.70
2022-08-17T09:46:15.947Z,7.93
2022-08-17T09:48:51.645Z,6.50
2022-08-17T09:51:24.676Z,5.80
2022-08-17T09:53:52.889Z,6.10
2022-08-17T09:56:46.069Z,6.70
2022-08-17T09:59:41.905Z,6.97
2022-08-17T10:02:40.500Z,7.30
2022-08-17T10:05:14.797Z,6.90
2022-08-17T10:07:48.653Z,6.30
2022-08-17T10:10:24.861Z,4.83
2022-08-17T10:13:20.315Z,5.77
2022-08-17T10:16:02.174Z,6.00
2022-08-17T10:18:43.887Z,7.30
2022-08-17T10:21:32.040Z,6.20
2022-08-17T10:24:24.454Z,6.50
2022-08-17T10:26:57.139Z,6.73
2022-08-17T10:29:40.771Z,6.33
2022-08-17T10:32:25.327Z,6.53
2022-08-17T10:35:26.217Z,6.50
2022-08-17T10:38:28.182Z,7.10
2022-08-17T10:41:02.299Z,6.77
2022-08-17T10:43:41.774Z,7.60
2022-08-17T10:46:31.205Z,6.30
2022-08-17T10:49:24.860Z,7.20
2022-08-17T10:51:55.716Z,7.50
2022-08-17T10:54:42.555Z,6.57
2022-08-17T10:57:38.131Z,7.90
2022-08-17T11:00:11.074Z,7.17
2022-08-17T11:02:49.343Z,6.20
2022-08-17T11:05:43.538Z,6.60
2022-08-17T11:08:47.667Z,5.40
2022-08-17T11:11:35.749Z,6.43
2022-08-17T11:14:28.428Z,6.43
2022-08-17T11:17:41.431Z,6.20
2022-08-17T11:20:21.440Z,5.60
2022-08-17T11:23:14.834Z,6.53
2022-08-17T11:25:49.354Z,6.20
2022-08-17T11:28:20.385Z,6.07
2022-08-17T11:30:52.109Z,6.47
2022-08-17T11:33:54.785Z,6.07
2022-08-17T11:36:45.588Z,6.80
2022-08-17T11:39:27.243Z,5.83
2022-08-17T11:42:05.839Z,5.90
2022-08-17T11:44:45.457Z,5.80
2022-08-17T11:47:38.576Z,5.90
2022-08-17T11:51:05.027Z,6.33
2022-08-17T11:54:30.659Z,6.00
2022-08-17T11:56:50.204Z,6.00
2022-08-17T11:59:58.523Z,6.57
2022-08-17T12:02:47.353Z,6.37
2022-08-17T12:05:37.120Z,5.33
2022-08-17T12:08:15.330Z,5.47
2022-08-17T12:10:54.201Z,6.47
2022-08-17T12:13:23.718Z,6.03
2022-08-17T12:16:07.242Z,5.70
2022-08-17T12:18:39.567Z,4.93
2022-08-17T12:21:50.540Z,5.43
2022-08-17T12:24:39.705Z,5.50
2022-08-17T12:27:10.456Z,5.00
2022-08-17T12:29:45.121Z,5.10
2022-08-17T12:32:20.033Z,4.93
2022-08-17T12:34:50.437Z,6.20
2022-08-17T12:37:21.957Z,5.50
2022-08-17T12:39:53.282Z,5.73
2022-08-17T12:42:31.149Z,6.07
2022-08-17T12:44:59.574Z,5.30
2022-08-17T12:47:30.389Z,6.03
2022-08-17T12:50:29.298Z,5.90
2022-08-17T12:53:01.776Z,6.00
2022-08-17T12:55:36.523Z,5.70
2022-08-17T12:58:04.686Z,6.20
2022-08-17T13:00:35.318Z,5.93
2022-08-17T13:03:07.846Z,5.77
2022-08-17T13:05:38.198Z,6.07
2022-08-17T13:08:20.248Z,6.13
2022-08-17T13:10:56.487Z,5.70
2022-08-17T13:13:27.877Z,5.67
2022-08-17T13:15:58.184Z,5.70
2022-08-17T13:18:42.691Z,5.73
2022-08-17T13:21:19.115Z,6.17
2022-08-17T13:23:56.934Z,5.53
2022-08-17T13:26:30.139Z,4.70
2022-08-17T13:28:59.001Z,5.20
2022-08-17T13:31:37.472Z,4.70
2022-08-17T13:35:03.727Z,4.93
2022-08-17T13:37:33.730Z,4.30
2022-08-17T13:40:20.405Z,4.53
2022-08-17T13:42:53.340Z,4.30
2022-08-17T13:45:53.015Z,4.87
2022-08-17T13:48:25.158Z,4.60
2022-08-17T13:51:15.489Z,4.60
2022-08-17T13:53:59.915Z,4.60
2022-08-17T13:56:54.324Z,4.50
2022-08-17T13:59:54.300Z,4.87
2022-08-17T14:02:28.628Z,4.63
2022-08-17T14:04:58.621Z,4.47
2022-08-17T14:07:35.294Z,4.43
2022-08-17T14:10:08.888Z,4.20
2022-08-17T14:12:39.115Z,4.40
2022-08-17T14:15:08.828Z,4.53
2022-08-17T14:17:39.111Z,4.57
2022-08-17T14:20:10.322Z,5.10
2022-08-17T14:22:44.006Z,4.73
2022-08-17T14:25:14.130Z,4.60
2022-08-17T14:27:53.113Z,4.23
2022-08-17T14:30:24.397Z,5.20
2022-08-17T14:32:54.090Z,4.57
2022-08-17T14:35:23.853Z,4.20
2022-08-17T14:37:53.804Z,4.37
2022-08-17T14:40:24.457Z,5.17
2022-08-17T14:42:54.040Z,4.53
2022-08-17T14:45:31.812Z,4.53
2022-08-17T14:48:00.856Z,4.00
2022-08-17T14:50:28.885Z,4.20
2022-08-17T14:52:58.333Z,4.30
2022-08-17T14:55:27.506Z,4.77
2022-08-17T14:57:55.526Z,3.80
2022-08-17T15:00:23.867Z,4.07
2022-08-17T15:02:54.880Z,4.10
2022-08-17T15:05:25.012Z,4.03
2022-08-17T15:07:53.740Z,3.83
2022-08-17T15:10:25.688Z,4.07
2022-08-17T15:12:54.437Z,4.63
2022-08-17T15:15:22.631Z,4.63
2022-08-17T15:17:51.188Z,4.57
2022-08-17T15:20:21.838Z,4.60
2022-08-17T15:22:50.585Z,4.40
2022-08-17T15:25:19.866Z,3.70
2022-08-17T15:27:49.373Z,4.57
2022-08-17T15:30:17.907Z,4.40
2022-08-17T15:32:53.190Z,4.20
2022-08-17T15:35:28.182Z,4.43
2022-08-17T15:38:04.560Z,4.53
2022-08-17T15:40:36.669Z,3.90
2022-08-17T15:43:07.677Z,4.50
2022-08-17T15:45:35.682Z,3.63
2022-08-17T15:48:04.469Z,4.63
2022-08-17T15:50:32.508Z,3.93
2022-08-17T15:53:03.466Z,4.70
2022-08-17T15:55:33.010Z,3.97
2022-08-17T15:58:01.692Z,4.40
2022-08-17T16:00:35.438Z,4.67
2022-08-17T16:04:01.637Z,5.20
2022-08-17T16:06:08.873Z,4.13
2022-08-17T16:08:41.559Z,4.10
2022-08-17T16:11:10.565Z,4.13
2022-08-17T16:13:39.636Z,5.00
2022-08-17T16:16:10.615Z,4.20
2022-08-17T16:18:39.490Z,5.20
2022-08-17T16:21:39.309Z,4.80
2022-08-17T16:24:13.213Z,5.20
2022-08-17T16:26:43.322Z,5.17
2022-08-17T16:29:11.401Z,4.70
2022-08-17T16:31:41.798Z,5.27
2022-08-17T16:34:18.000Z,5.10
2022-08-17T16:36:51.822Z,5.10
2022-08-17T16:39:26.457Z,4.97
2022-08-17T16:41:55.653Z,5.07
2022-08-17T16:44:23.973Z,4.97
2022-08-17T16:46:53.439Z,4.73
2022-08-17T16:49:35.281Z,4.90
2022-08-17T16:52:09.854Z,4.70
2022-08-17T16:54:39.633Z,5.37
2022-08-17T16:57:07.615Z,5.70
2022-08-17T16:59:41.031Z,5.47
2022-08-17T17:02:16.429Z,5.40
2022-08-17T17:04:51.035Z,4.47
2022-08-17T17:07:34.628Z,4.87
2022-08-17T17:10:08.627Z,5.70
2022-08-17T17:13:02.639Z,5.60
2022-08-17T17:15:38.212Z,5.10
2022-08-17T17:18:12.906Z,5.40
2022-08-17T17:20:48.567Z,5.80
2022-08-17T17:23:29.147Z,7.20
2022-08-17T17:26:03.934Z,5.37
2022-08-17T17:28:46.243Z,5.30
2022-08-17T17:31:17.469Z,5.43
2022-08-17T17:33:50.938Z,5.70
2022-08-17T17:36:26.959Z,5.50
2022-08-17T17:39:00.051Z,5.67
2022-08-17T17:41:34.844Z,5.50
2022-08-17T17:44:05.759Z,5.63
2022-08-17T17:46:39.439Z,5.27
2022-08-17T17:49:10.571Z,5.33
2022-08-17T17:52:09.970Z,6.37
2022-08-17T17:54:56.445Z,6.07
2022-08-17T17:57:35.630Z,5.47
2022-08-17T18:00:13.040Z,5.87
2022-08-17T18:03:02.271Z,5.33
2022-08-17T18:05:58.382Z,5.27
2022-08-17T18:08:42.951Z,5.00
2022-08-17T18:11:24.352Z,5.77
2022-08-17T18:14:06.138Z,6.40
2022-08-17T18:16:35.714Z,5.70
2022-08-17T18:19:03.837Z,5.80
2022-08-17T18:21:39.552Z,5.83
2022-08-17T18:24:10.429Z,5.33
2022-08-17T18:26:50.386Z,6.40
2022-08-17T18:29:37.951Z,6.03
2022-08-17T18:32:37.039Z,6.10
2022-08-17T18:35:34.924Z,6.70
2022-08-17T18:38:22.744Z,6.40
2022-08-17T18:41:07.921Z,6.70
2022-08-17T18:43:43.936Z,7.20
2022-08-17T18:46:30.106Z,7.40
2022-08-17T18:49:00.734Z,6.70
2022-08-17T18:51:40.850Z,6.83
2022-08-17T18:54:20.678Z,6.13
2022-08-17T18:56:55.048Z,6.80
2022-08-17T18:59:30.375Z,7.20
2022-08-17T19:02:10.050Z,8.27
2022-08-17T19:04:42.662Z,7.47
2022-08-17T19:07:25.670Z,7.30
2022-08-17T19:10:00.081Z,8.00
2022-08-17T19:12:33.724Z,8.33
2022-08-17T19:15:03.070Z,6.97
2022-08-17T19:17:40.875Z,7.77
2022-08-17T19:20:16.805Z,7.00
2022-08-17T19:23:13.703Z,6.60
2022-08-17T19:25:48.697Z,6.87
2022-08-17T19:28:24.268Z,6.47
2022-08-17T19:30:57.153Z,6.93
2022-08-17T19:33:25.918Z,7.67
2022-08-17T19:36:04.654Z,7.90
2022-08-17T19:38:43.164Z,7.13
2022-08-17T19:41:20.227Z,7.13
2022-08-17T19:43:59.995Z,7.23
2022-08-17T19:46:36.241Z,6.70
2022-08-17T19:49:33.004Z,7.33
2022-08-17T19:52:21.296Z,8.00
2022-08-17T19:54:55.929Z,7.40
2022-08-17T19:57:41.627Z,7.30
2022-08-17T20:00:13.118Z,7.37
2022-08-17T20:02:50.504Z,7.10
2022-08-17T20:05:28.105Z,8.00
2022-08-17T20:08:01.122Z,8.20
2022-08-17T20:10:39.727Z,8.47
2022-08-17T20:13:12.000Z,8.37
2022-08-17T20:15:43.118Z,7.97
2022-08-17T20:18:19.386Z,7.13
2022-08-17T20:20:55.885Z,7.40
2022-08-17T20:23:35.231Z,7.27
2022-08-17T20:26:10.595Z,8.17
2022-08-17T20:29:00.187Z,7.67
2022-08-17T20:31:45.981Z,7.03
2022-08-17T20:34:37.758Z,6.70
2022-08-17T20:37:09.992Z,7.27
2022-08-17T20:39:40.953Z,7.40
2022-08-17T20:42:29.562Z,7.17
2022-08-17T20:45:04.646Z,8.00
2022-08-17T20:47:35.546Z,7.90
2022-08-17T20:50:07.960Z,7.10
2022-08-17T20:52:46.634Z,7.80
2022-08-17T20:55:51.894Z,6.60
2022-08-17T20:58:48.395Z,8.23
2022-08-17T21:01:34.850Z,7.90
2022-08-17T21:04:08.110Z,7.67
2022-08-17T21:06:56.296Z,7.40
2022-08-17T21:09:31.745Z,7.63
2022-08-17T21:12:04.637Z,6.80
2022-08-17T21:15:00.789Z,7.17
2022-08-17T21:17:43.580Z,8.40
2022-08-17T21:20:32.127Z,7.93
2022-08-17T21:23:19.513Z,8.60
2022-08-17T21:26:15.620Z,7.70
2022-08-17T21:29:00.415Z,7.80
2022-08-17T21:31:36.184Z,8.63
2022-08-17T21:34:27.294Z,7.60
2022-08-17T21:36:56.832Z,6.90
2022-08-17T21:39:33.389Z,8.03
2022-08-17T21:42:02.280Z,7.80
2022-08-17T21:44:34.797Z,7.53
2022-08-17T21:47:20.828Z,8.00
2022-08-17T21:49:50.173Z,7.90
2022-08-17T21:52:21.212Z,7.03
2022-08-17T21:54:51.963Z,7.70
2022-08-17T21:57:23.618Z,7.63
2022-08-17T21:59:55.131Z,7.10
2022-08-17T22:02:26.248Z,7.80
2022-08-17T22:05:01.378Z,7.93
2022-08-17T22:07:38.635Z,7.70
2022-08-17T22:10:09.008Z,7.13
2022-08-17T22:12:37.062Z,6.73
2022-08-17T22:15:09.720Z,7.03
2022-08-17T22:17:44.983Z,6.80
2022-08-17T22:20:18.053Z,6.80
2022-08-17T22:23:23.931Z,6.80
2022-08-17T22:26:00.818Z,6.60
2022-08-17T22:28:42.071Z,6.17
2022-08-17T22:31:14.640Z,6.63
2022-08-17T22:33:46.784Z,6.10
2022-08-17T22:36:26.529Z,6.10
2022-08-17T22:38:58.857Z,6.27
2022-08-17T22:41:51.847Z,6.10
2022-08-17T22:44:29.507Z,5.23
2022-08-17T22:47:01.197Z,5.53
2022-08-17T22:49:32.765Z,5.13
2022-08-17T22:52:07.380Z,4.80
2022-08-17T22:54:53.046Z,6.00
2022-08-17T22:57:42.097Z,4.80
2022-08-17T23:00:29.069Z,5.20
2022-08-17T23:03:10.392Z,5.60
2022-08-17T23:05:39.623Z,4.40
2022-08-17T23:08:11.202Z,5.00
2022-08-17T23:10:39.397Z,5.27
2022-08-17T23:13:11.744Z,5.13
2022-08-17T23:15:41.505Z,5.63
2022-08-17T23:18:09.986Z,5.20
2022-08-17T23:20:42.708Z,6.03
2022-08-17T23:23:14.008Z,5.70
2022-08-17T23:25:46.412Z,6.23
2022-08-17T23:28:14.531Z,5.93
2022-08-17T23:30:46.779Z,5.80
2022-08-17T23:33:20.262Z,6.20
2022-08-17T23:35:48.674Z,6.13
2022-08-17T23:38:18.867Z,6.77
2022-08-17T23:40:46.912Z,6.87
2022-08-17T23:43:25.385Z,6.80
2022-08-17T23:45:57.455Z,5.90
2022-08-17T23:48:32.573Z,6.57
2022-08-17T23:51:09.678Z,6.43
2022-08-17T23:53:42.671Z,6.60
2022-08-17T23:56:11.700Z,7.17
2022-08-17T23:58:43.334Z,6.43
